sensor_id;sensor_type;location;lat;lon;timestamp;P1;durP1;ratioP1;P2;durP2;ratioP2
11338;SDS011;5724;42.684;23.252;2024-03-02T00:02:06;20.07;;;17.93;;
11338;SDS011;5724;42.684;23.252;2024-03-02T00:04:32;21.20;;;17.93;;
11338;SDS011;5724;42.684;23.252;2024-03-02T00:06:57;23.13;;;18.07;;
11338;SDS011;5724;42.684;23.252;2024-03-02T00:09:23;22.60;;;18.90;;
11338;SDS011;5724;42.684;23.252;2024-03-02T00:11:48;24.03;;;19.50;;
11338;SDS011;5724;42.684;23.252;2024-03-02T00:14:14;23.23;;;18.30;;
11338;SDS011;5724;42.684;23.252;2024-03-02T00:16:40;22.43;;;19.10;;
11338;SDS011;5724;42.684;23.252;2024-03-02T00:19:06;24.27;;;20.03;;
11338;SDS011;5724;42.684;23.252;2024-03-02T00:21:34;21.67;;;19.00;;
11338;SDS011;5724;42.684;23.252;2024-03-02T00:24:00;26.50;;;20.10;;
11338;SDS011;5724;42.684;23.252;2024-03-02T00:26:31;23.97;;;19.53;;
11338;SDS011;5724;42.684;23.252;2024-03-02T00:28:59;23.53;;;19.73;;
11338;SDS011;5724;42.684;23.252;2024-03-02T00:31:26;23.80;;;19.20;;
11338;SDS011;5724;42.684;23.252;2024-03-02T00:33:51;21.17;;;18.90;;
11338;SDS011;5724;42.684;23.252;2024-03-02T00:36:26;21.63;;;19.20;;
11338;SDS011;5724;42.684;23.252;2024-03-02T00:38:52;25.60;;;19.77;;
11338;SDS011;5724;42.684;23.252;2024-03-02T00:41:23;23.00;;;18.80;;
11338;SDS011;5724;42.684;23.252;2024-03-02T00:44:03;27.90;;;19.00;;
11338;SDS011;5724;42.684;23.252;2024-03-02T00:46:34;21.97;;;19.57;;
11338;SDS011;5724;42.684;23.252;2024-03-02T00:51:50;22.90;;;19.73;;
11338;SDS011;5724;42.684;23.252;2024-03-02T00:54:21;22.63;;;19.00;;
11338;SDS011;5724;42.684;23.252;2024-03-02T00:56:49;23.63;;;20.60;;
11338;SDS011;5724;42.684;23.252;2024-03-02T00:59:16;26.00;;;20.47;;
11338;SDS011;5724;42.684;23.252;2024-03-02T01:01:42;25.87;;;20.30;;
11338;SDS011;5724;42.684;23.252;2024-03-02T01:04:08;26.60;;;20.67;;
11338;SDS011;5724;42.684;23.252;2024-03-02T01:06:37;26.37;;;20.80;;
11338;SDS011;5724;42.684;23.252;2024-03-02T01:09:03;24.70;;;19.77;;
11338;SDS011;5724;42.684;23.252;2024-03-02T01:11:29;25.13;;;21.23;;
11338;SDS011;5724;42.684;23.252;2024-03-02T01:13:55;29.70;;;21.23;;
11338;SDS011;5724;42.684;23.252;2024-03-02T01:16:20;22.77;;;20.33;;
11338;SDS011;5724;42.684;23.252;2024-03-02T01:18:46;25.53;;;21.20;;
11338;SDS011;5724;42.684;23.252;2024-03-02T01:21:11;24.00;;;20.83;;
11338;SDS011;5724;42.684;23.252;2024-03-02T01:23:37;25.40;;;20.97;;
11338;SDS011;5724;42.684;23.252;2024-03-02T01:26:03;27.17;;;21.93;;
11338;SDS011;5724;42.684;23.252;2024-03-02T01:28:28;23.90;;;20.17;;
11338;SDS011;5724;42.684;23.252;2024-03-02T01:30:54;25.17;;;19.57;;
11338;SDS011;5724;42.684;23.252;2024-03-02T01:33:19;24.40;;;19.90;;
11338;SDS011;5724;42.684;23.252;2024-03-02T01:35:46;26.70;;;20.40;;
11338;SDS011;5724;42.684;23.252;2024-03-02T01:38:12;22.63;;;18.40;;
11338;SDS011;5724;42.684;23.252;2024-03-02T01:40:37;22.33;;;19.10;;
11338;SDS011;5724;42.684;23.252;2024-03-02T01:43:04;24.90;;;18.35;;
11338;SDS011;5724;42.684;23.252;2024-03-02T01:45:30;21.47;;;17.83;;
11338;SDS011;5724;42.684;23.252;2024-03-02T01:47:56;22.70;;;17.85;;
11338;SDS011;5724;42.684;23.252;2024-03-02T01:50:28;21.07;;;17.73;;
11338;SDS011;5724;42.684;23.252;2024-03-02T01:52:55;24.73;;;18.93;;
11338;SDS011;5724;42.684;23.252;2024-03-02T01:55:21;30.60;;;23.07;;
11338;SDS011;5724;42.684;23.252;2024-03-02T01:57:47;29.70;;;21.97;;
11338;SDS011;5724;42.684;23.252;2024-03-02T02:00:14;28.43;;;21.97;;
11338;SDS011;5724;42.684;23.252;2024-03-02T02:02:40;30.60;;;21.67;;
11338;SDS011;5724;42.684;23.252;2024-03-02T02:05:06;25.83;;;20.97;;
11338;SDS011;5724;42.684;23.252;2024-03-02T02:07:32;27.30;;;21.63;;
11338;SDS011;5724;42.684;23.252;2024-03-02T02:10:00;28.30;;;22.73;;
11338;SDS011;5724;42.684;23.252;2024-03-02T02:12:26;27.53;;;22.70;;
11338;SDS011;5724;42.684;23.252;2024-03-02T02:14:51;31.00;;;24.57;;
11338;SDS011;5724;42.684;23.252;2024-03-02T02:17:17;34.90;;;26.47;;
11338;SDS011;5724;42.684;23.252;2024-03-02T02:19:43;36.43;;;26.57;;
11338;SDS011;5724;42.684;23.252;2024-03-02T02:22:09;35.73;;;26.97;;
11338;SDS011;5724;42.684;23.252;2024-03-02T02:24:35;38.50;;;28.90;;
11338;SDS011;5724;42.684;23.252;2024-03-02T02:27:00;36.43;;;27.73;;
11338;SDS011;5724;42.684;23.252;2024-03-02T02:29:26;38.40;;;27.90;;
11338;SDS011;5724;42.684;23.252;2024-03-02T02:31:52;37.50;;;27.83;;
11338;SDS011;5724;42.684;23.252;2024-03-02T02:34:18;39.83;;;29.23;;
11338;SDS011;5724;42.684;23.252;2024-03-02T02:36:43;38.33;;;29.43;;
11338;SDS011;5724;42.684;23.252;2024-03-02T02:39:10;38.43;;;29.50;;
11338;SDS011;5724;42.684;23.252;2024-03-02T02:41:38;35.70;;;27.67;;
11338;SDS011;5724;42.684;23.252;2024-03-02T02:44:04;40.37;;;29.60;;
11338;SDS011;5724;42.684;23.252;2024-03-02T02:46:30;38.03;;;29.07;;
11338;SDS011;5724;42.684;23.252;2024-03-02T02:48:55;38.47;;;28.27;;
11338;SDS011;5724;42.684;23.252;2024-03-02T02:51:21;40.40;;;28.87;;
11338;SDS011;5724;42.684;23.252;2024-03-02T02:53:46;40.07;;;29.40;;
11338;SDS011;5724;42.684;23.252;2024-03-02T02:56:12;41.43;;;30.03;;
11338;SDS011;5724;42.684;23.252;2024-03-02T02:58:39;41.23;;;30.43;;
11338;SDS011;5724;42.684;23.252;2024-03-02T03:01:06;43.23;;;30.77;;
11338;SDS011;5724;42.684;23.252;2024-03-02T03:03:32;38.57;;;30.23;;
11338;SDS011;5724;42.684;23.252;2024-03-02T03:05:58;40.37;;;30.00;;
11338;SDS011;5724;42.684;23.252;2024-03-02T03:08:25;43.07;;;30.57;;
11338;SDS011;5724;42.684;23.252;2024-03-02T03:10:50;44.07;;;31.07;;
11338;SDS011;5724;42.684;23.252;2024-03-02T03:13:16;40.50;;;29.87;;
11338;SDS011;5724;42.684;23.252;2024-03-02T03:15:41;39.27;;;29.60;;
11338;SDS011;5724;42.684;23.252;2024-03-02T03:18:07;40.20;;;30.43;;
11338;SDS011;5724;42.684;23.252;2024-03-02T03:20:33;41.47;;;30.33;;
11338;SDS011;5724;42.684;23.252;2024-03-02T03:22:59;44.20;;;31.87;;
11338;SDS011;5724;42.684;23.252;2024-03-02T03:25:25;41.80;;;30.60;;
11338;SDS011;5724;42.684;23.252;2024-03-02T03:27:51;43.20;;;32.00;;
11338;SDS011;5724;42.684;23.252;2024-03-02T03:30:19;45.70;;;33.20;;
11338;SDS011;5724;42.684;23.252;2024-03-02T03:32:44;43.77;;;31.77;;
11338;SDS011;5724;42.684;23.252;2024-03-02T03:35:10;43.17;;;32.37;;
11338;SDS011;5724;42.684;23.252;2024-03-02T03:37:37;44.70;;;32.10;;
11338;SDS011;5724;42.684;23.252;2024-03-02T03:40:03;41.43;;;31.00;;
11338;SDS011;5724;42.684;23.252;2024-03-02T03:42:35;43.27;;;30.97;;
11338;SDS011;5724;42.684;23.252;2024-03-02T03:45:01;49.30;;;32.83;;
11338;SDS011;5724;42.684;23.252;2024-03-02T03:47:27;46.80;;;32.57;;
11338;SDS011;5724;42.684;23.252;2024-03-02T03:49:53;40.20;;;31.13;;
11338;SDS011;5724;42.684;23.252;2024-03-02T03:52:18;43.63;;;32.37;;
11338;SDS011;5724;42.684;23.252;2024-03-02T03:54:44;41.77;;;31.53;;
11338;SDS011;5724;42.684;23.252;2024-03-02T03:57:10;40.77;;;30.93;;
11338;SDS011;5724;42.684;23.252;2024-03-02T03:59:35;44.07;;;31.87;;
11338;SDS011;5724;42.684;23.252;2024-03-02T04:02:02;43.33;;;30.50;;
11338;SDS011;5724;42.684;23.252;2024-03-02T04:04:28;44.17;;;30.00;;
11338;SDS011;5724;42.684;23.252;2024-03-02T04:06:54;42.07;;;31.40;;
11338;SDS011;5724;42.684;23.252;2024-03-02T04:09:19;43.33;;;31.00;;
11338;SDS011;5724;42.684;23.252;2024-03-02T04:11:45;43.90;;;31.07;;
11338;SDS011;5724;42.684;23.252;2024-03-02T04:14:11;42.80;;;31.03;;
11338;SDS011;5724;42.684;23.252;2024-03-02T04:16:37;44.90;;;31.03;;
11338;SDS011;5724;42.684;23.252;2024-03-02T04:19:04;42.33;;;31.10;;
11338;SDS011;5724;42.684;23.252;2024-03-02T04:21:30;41.43;;;31.37;;
11338;SDS011;5724;42.684;23.252;2024-03-02T04:23:56;44.40;;;31.00;;
11338;SDS011;5724;42.684;23.252;2024-03-02T04:26:23;45.27;;;31.43;;
11338;SDS011;5724;42.684;23.252;2024-03-02T04:28:50;42.53;;;32.00;;
11338;SDS011;5724;42.684;23.252;2024-03-02T04:31:16;43.57;;;30.93;;
11338;SDS011;5724;42.684;23.252;2024-03-02T04:33:42;43.00;;;31.00;;
11338;SDS011;5724;42.684;23.252;2024-03-02T04:36:08;41.57;;;30.90;;
11338;SDS011;5724;42.684;23.252;2024-03-02T04:38:34;42.03;;;31.20;;
11338;SDS011;5724;42.684;23.252;2024-03-02T04:41:00;45.73;;;31.73;;
11338;SDS011;5724;42.684;23.252;2024-03-02T04:43:26;43.47;;;31.70;;
11338;SDS011;5724;42.684;23.252;2024-03-02T04:45:51;46.47;;;32.20;;
11338;SDS011;5724;42.684;23.252;2024-03-02T04:48:17;46.57;;;33.27;;
11338;SDS011;5724;42.684;23.252;2024-03-02T04:50:42;46.03;;;33.07;;
11338;SDS011;5724;42.684;23.252;2024-03-02T04:53:08;40.93;;;31.27;;
11338;SDS011;5724;42.684;23.252;2024-03-02T04:55:33;46.67;;;32.13;;
11338;SDS011;5724;42.684;23.252;2024-03-02T04:57:59;43.57;;;32.57;;
11338;SDS011;5724;42.684;23.252;2024-03-02T05:00:24;43.50;;;30.87;;
11338;SDS011;5724;42.684;23.252;2024-03-02T05:02:50;43.30;;;31.73;;
11338;SDS011;5724;42.684;23.252;2024-03-02T05:05:16;40.20;;;30.17;;
11338;SDS011;5724;42.684;23.252;2024-03-02T05:07:42;46.87;;;32.73;;
11338;SDS011;5724;42.684;23.252;2024-03-02T05:10:09;40.77;;;31.43;;
11338;SDS011;5724;42.684;23.252;2024-03-02T05:12:37;45.53;;;33.30;;
11338;SDS011;5724;42.684;23.252;2024-03-02T05:15:08;41.37;;;31.50;;
11338;SDS011;5724;42.684;23.252;2024-03-02T05:17:38;44.93;;;31.57;;
11338;SDS011;5724;42.684;23.252;2024-03-02T05:20:10;41.60;;;31.30;;
11338;SDS011;5724;42.684;23.252;2024-03-02T05:22:36;43.17;;;31.37;;
11338;SDS011;5724;42.684;23.252;2024-03-02T05:25:03;41.97;;;31.73;;
11338;SDS011;5724;42.684;23.252;2024-03-02T05:27:29;43.30;;;32.23;;
11338;SDS011;5724;42.684;23.252;2024-03-02T05:29:55;46.73;;;33.00;;
11338;SDS011;5724;42.684;23.252;2024-03-02T05:32:21;48.03;;;33.57;;
11338;SDS011;5724;42.684;23.252;2024-03-02T05:34:46;51.63;;;34.10;;
11338;SDS011;5724;42.684;23.252;2024-03-02T05:37:12;50.57;;;34.80;;
11338;SDS011;5724;42.684;23.252;2024-03-02T05:39:37;50.93;;;34.87;;
11338;SDS011;5724;42.684;23.252;2024-03-02T05:42:03;46.43;;;33.37;;
11338;SDS011;5724;42.684;23.252;2024-03-02T05:44:29;50.37;;;34.77;;
11338;SDS011;5724;42.684;23.252;2024-03-02T05:46:55;51.50;;;35.00;;
11338;SDS011;5724;42.684;23.252;2024-03-02T05:49:21;51.93;;;33.70;;
11338;SDS011;5724;42.684;23.252;2024-03-02T05:51:46;46.07;;;33.83;;
11338;SDS011;5724;42.684;23.252;2024-03-02T05:54:12;47.27;;;35.77;;
11338;SDS011;5724;42.684;23.252;2024-03-02T05:56:37;50.30;;;34.50;;
11338;SDS011;5724;42.684;23.252;2024-03-02T05:59:03;52.43;;;34.80;;
11338;SDS011;5724;42.684;23.252;2024-03-02T06:01:44;51.53;;;36.07;;
11338;SDS011;5724;42.684;23.252;2024-03-02T06:04:15;64.53;;;44.83;;
11338;SDS011;5724;42.684;23.252;2024-03-02T06:06:41;50.97;;;35.53;;
11338;SDS011;5724;42.684;23.252;2024-03-02T06:09:07;46.77;;;34.13;;
11338;SDS011;5724;42.684;23.252;2024-03-02T06:11:33;51.97;;;36.17;;
11338;SDS011;5724;42.684;23.252;2024-03-02T06:14:01;51.53;;;37.90;;
11338;SDS011;5724;42.684;23.252;2024-03-02T06:16:27;53.60;;;37.70;;
11338;SDS011;5724;42.684;23.252;2024-03-02T06:18:53;50.57;;;35.97;;
11338;SDS011;5724;42.684;23.252;2024-03-02T06:21:19;47.20;;;34.40;;
11338;SDS011;5724;42.684;23.252;2024-03-02T06:23:45;49.70;;;35.27;;
11338;SDS011;5724;42.684;23.252;2024-03-02T06:26:11;46.37;;;34.20;;
11338;SDS011;5724;42.684;23.252;2024-03-02T06:28:37;47.23;;;34.27;;
11338;SDS011;5724;42.684;23.252;2024-03-02T06:31:03;53.37;;;34.60;;
11338;SDS011;5724;42.684;23.252;2024-03-02T06:33:29;48.87;;;35.83;;
11338;SDS011;5724;42.684;23.252;2024-03-02T06:35:54;59.73;;;46.93;;
11338;SDS011;5724;42.684;23.252;2024-03-02T06:38:20;53.63;;;37.67;;
11338;SDS011;5724;42.684;23.252;2024-03-02T06:40:45;49.77;;;35.20;;
11338;SDS011;5724;42.684;23.252;2024-03-02T06:43:11;47.47;;;35.10;;
11338;SDS011;5724;42.684;23.252;2024-03-02T06:45:36;48.53;;;35.07;;
11338;SDS011;5724;42.684;23.252;2024-03-02T06:48:02;50.13;;;35.47;;
11338;SDS011;5724;42.684;23.252;2024-03-02T06:50:27;47.93;;;36.13;;
11338;SDS011;5724;42.684;23.252;2024-03-02T06:52:53;51.97;;;36.83;;
11338;SDS011;5724;42.684;23.252;2024-03-02T06:55:21;52.07;;;37.07;;
11338;SDS011;5724;42.684;23.252;2024-03-02T06:57:46;49.50;;;36.83;;
11338;SDS011;5724;42.684;23.252;2024-03-02T07:00:12;49.83;;;36.93;;
11338;SDS011;5724;42.684;23.252;2024-03-02T07:02:39;48.77;;;36.40;;
11338;SDS011;5724;42.684;23.252;2024-03-02T07:05:06;47.53;;;36.27;;
11338;SDS011;5724;42.684;23.252;2024-03-02T07:07:33;50.80;;;37.87;;
11338;SDS011;5724;42.684;23.252;2024-03-02T07:10:00;49.83;;;37.20;;
11338;SDS011;5724;42.684;23.252;2024-03-02T07:12:25;46.30;;;36.37;;
11338;SDS011;5724;42.684;23.252;2024-03-02T07:14:51;49.87;;;35.03;;
11338;SDS011;5724;42.684;23.252;2024-03-02T07:17:29;43.33;;;34.13;;
11338;SDS011;5724;42.684;23.252;2024-03-02T07:19:57;46.40;;;33.67;;
11338;SDS011;5724;42.684;23.252;2024-03-02T07:22:23;48.17;;;36.27;;
11338;SDS011;5724;42.684;23.252;2024-03-02T07:24:49;46.30;;;34.17;;
11338;SDS011;5724;42.684;23.252;2024-03-02T07:27:15;46.40;;;32.57;;
11338;SDS011;5724;42.684;23.252;2024-03-02T07:29:41;39.90;;;30.67;;
11338;SDS011;5724;42.684;23.252;2024-03-02T07:32:09;41.37;;;30.60;;
11338;SDS011;5724;42.684;23.252;2024-03-02T07:34:35;40.27;;;29.93;;
11338;SDS011;5724;42.684;23.252;2024-03-02T07:37:01;40.83;;;28.30;;
11338;SDS011;5724;42.684;23.252;2024-03-02T07:39:27;39.90;;;29.17;;
11338;SDS011;5724;42.684;23.252;2024-03-02T07:41:54;39.57;;;27.97;;
11338;SDS011;5724;42.684;23.252;2024-03-02T07:44:20;37.40;;;27.33;;
11338;SDS011;5724;42.684;23.252;2024-03-02T07:46:47;38.20;;;27.00;;
11338;SDS011;5724;42.684;23.252;2024-03-02T07:49:15;33.03;;;25.87;;
11338;SDS011;5724;42.684;23.252;2024-03-02T07:51:41;31.63;;;25.00;;
11338;SDS011;5724;42.684;23.252;2024-03-02T07:54:07;37.27;;;26.80;;
11338;SDS011;5724;42.684;23.252;2024-03-02T07:56:33;38.73;;;28.93;;
11338;SDS011;5724;42.684;23.252;2024-03-02T07:59:00;39.63;;;27.90;;
11338;SDS011;5724;42.684;23.252;2024-03-02T08:01:32;40.27;;;27.40;;
11338;SDS011;5724;42.684;23.252;2024-03-02T08:03:58;40.63;;;28.10;;
11338;SDS011;5724;42.684;23.252;2024-03-02T08:06:27;43.07;;;27.80;;
11338;SDS011;5724;42.684;23.252;2024-03-02T08:08:53;40.17;;;27.70;;
11338;SDS011;5724;42.684;23.252;2024-03-02T08:11:20;37.97;;;28.07;;
11338;SDS011;5724;42.684;23.252;2024-03-02T08:13:46;39.30;;;28.00;;
11338;SDS011;5724;42.684;23.252;2024-03-02T08:16:11;41.03;;;26.77;;
11338;SDS011;5724;42.684;23.252;2024-03-02T08:18:37;37.43;;;26.60;;
11338;SDS011;5724;42.684;23.252;2024-03-02T08:21:03;42.20;;;28.57;;
11338;SDS011;5724;42.684;23.252;2024-03-02T08:23:29;38.63;;;28.40;;
11338;SDS011;5724;42.684;23.252;2024-03-02T08:25:55;37.50;;;27.03;;
11338;SDS011;5724;42.684;23.252;2024-03-02T08:28:21;36.17;;;26.13;;
11338;SDS011;5724;42.684;23.252;2024-03-02T08:30:47;36.83;;;26.30;;
11338;SDS011;5724;42.684;23.252;2024-03-02T08:33:12;44.33;;;32.23;;
11338;SDS011;5724;42.684;23.252;2024-03-02T08:35:37;41.87;;;29.93;;
11338;SDS011;5724;42.684;23.252;2024-03-02T08:38:03;47.57;;;34.80;;
11338;SDS011;5724;42.684;23.252;2024-03-02T08:40:29;43.63;;;31.00;;
11338;SDS011;5724;42.684;23.252;2024-03-02T08:42:56;34.50;;;26.50;;
11338;SDS011;5724;42.684;23.252;2024-03-02T08:45:23;39.30;;;27.90;;
11338;SDS011;5724;42.684;23.252;2024-03-02T08:47:49;43.97;;;30.77;;
11338;SDS011;5724;42.684;23.252;2024-03-02T08:50:15;40.05;;;30.17;;
11338;SDS011;5724;42.684;23.252;2024-03-02T08:52:40;34.78;;;25.75;;
11338;SDS011;5724;42.684;23.252;2024-03-02T08:55:06;33.55;;;25.55;;
11338;SDS011;5724;42.684;23.252;2024-03-02T08:57:32;35.83;;;24.85;;
11338;SDS011;5724;42.684;23.252;2024-03-02T08:59:58;31.60;;;24.73;;
11338;SDS011;5724;42.684;23.252;2024-03-02T09:02:25;33.28;;;25.38;;
11338;SDS011;5724;42.684;23.252;2024-03-02T09:04:50;33.80;;;24.65;;
11338;SDS011;5724;42.684;23.252;2024-03-02T09:07:16;32.75;;;24.45;;
11338;SDS011;5724;42.684;23.252;2024-03-02T09:09:41;33.78;;;24.35;;
11338;SDS011;5724;42.684;23.252;2024-03-02T09:12:07;29.50;;;23.48;;
11338;SDS011;5724;42.684;23.252;2024-03-02T09:14:33;32.00;;;23.50;;
11338;SDS011;5724;42.684;23.252;2024-03-02T09:16:59;31.25;;;23.33;;
11338;SDS011;5724;42.684;23.252;2024-03-02T09:19:24;30.23;;;23.77;;
11338;SDS011;5724;42.684;23.252;2024-03-02T09:21:50;31.23;;;23.40;;
11338;SDS011;5724;42.684;23.252;2024-03-02T09:24:16;27.50;;;22.95;;
11338;SDS011;5724;42.684;23.252;2024-03-02T09:26:41;31.85;;;25.00;;
11338;SDS011;5724;42.684;23.252;2024-03-02T09:29:07;28.90;;;24.20;;
11338;SDS011;5724;42.684;23.252;2024-03-02T09:31:32;29.88;;;23.83;;
11338;SDS011;5724;42.684;23.252;2024-03-02T09:33:58;31.05;;;23.73;;
11338;SDS011;5724;42.684;23.252;2024-03-02T09:36:23;29.73;;;24.08;;
11338;SDS011;5724;42.684;23.252;2024-03-02T09:38:49;33.90;;;23.70;;
11338;SDS011;5724;42.684;23.252;2024-03-02T09:41:15;28.45;;;23.20;;
11338;SDS011;5724;42.684;23.252;2024-03-02T09:43:41;29.52;;;23.30;;
11338;SDS011;5724;42.684;23.252;2024-03-02T09:46:09;25.40;;;21.30;;
11338;SDS011;5724;42.684;23.252;2024-03-02T09:48:35;29.67;;;23.05;;
11338;SDS011;5724;42.684;23.252;2024-03-02T09:51:01;29.63;;;22.45;;
11338;SDS011;5724;42.684;23.252;2024-03-02T09:53:31;30.33;;;22.98;;
11338;SDS011;5724;42.684;23.252;2024-03-02T09:56:01;27.40;;;22.30;;
11338;SDS011;5724;42.684;23.252;2024-03-02T09:58:27;25.90;;;21.10;;
11338;SDS011;5724;42.684;23.252;2024-03-02T10:00:52;26.60;;;21.85;;
11338;SDS011;5724;42.684;23.252;2024-03-02T10:03:18;27.23;;;22.30;;
11338;SDS011;5724;42.684;23.252;2024-03-02T10:05:44;26.08;;;21.52;;
11338;SDS011;5724;42.684;23.252;2024-03-02T10:08:10;23.70;;;19.70;;
11338;SDS011;5724;42.684;23.252;2024-03-02T10:10:36;26.80;;;21.60;;
11338;SDS011;5724;42.684;23.252;2024-03-02T10:13:09;25.95;;;21.45;;
11338;SDS011;5724;42.684;23.252;2024-03-02T10:15:36;29.20;;;24.15;;
11338;SDS011;5724;42.684;23.252;2024-03-02T10:18:08;29.42;;;23.60;;
11338;SDS011;5724;42.684;23.252;2024-03-02T10:20:35;28.90;;;22.73;;
11338;SDS011;5724;42.684;23.252;2024-03-02T10:23:14;30.00;;;21.83;;
11338;SDS011;5724;42.684;23.252;2024-03-02T10:25:41;30.02;;;24.05;;
11338;SDS011;5724;42.684;23.252;2024-03-02T10:28:07;28.63;;;23.08;;
11338;SDS011;5724;42.684;23.252;2024-03-02T10:30:35;29.60;;;24.40;;
11338;SDS011;5724;42.684;23.252;2024-03-02T10:33:01;34.38;;;23.52;;
11338;SDS011;5724;42.684;23.252;2024-03-02T10:35:28;30.48;;;23.70;;
11338;SDS011;5724;42.684;23.252;2024-03-02T10:37:54;34.10;;;25.25;;
11338;SDS011;5724;42.684;23.252;2024-03-02T10:40:23;36.75;;;26.70;;
11338;SDS011;5724;42.684;23.252;2024-03-02T10:42:52;34.80;;;25.67;;
11338;SDS011;5724;42.684;23.252;2024-03-02T10:45:19;36.67;;;26.23;;
11338;SDS011;5724;42.684;23.252;2024-03-02T10:47:47;38.27;;;28.10;;
11338;SDS011;5724;42.684;23.252;2024-03-02T10:50:13;36.70;;;26.45;;
11338;SDS011;5724;42.684;23.252;2024-03-02T10:52:38;32.38;;;24.92;;
11338;SDS011;5724;42.684;23.252;2024-03-02T10:55:05;33.50;;;25.35;;
11338;SDS011;5724;42.684;23.252;2024-03-02T10:57:33;34.13;;;25.67;;
11338;SDS011;5724;42.684;23.252;2024-03-02T11:00:17;35.03;;;26.15;;
11338;SDS011;5724;42.684;23.252;2024-03-02T11:02:51;33.88;;;25.65;;
11338;SDS011;5724;42.684;23.252;2024-03-02T11:05:31;34.10;;;26.30;;
11338;SDS011;5724;42.684;23.252;2024-03-02T11:08:01;36.03;;;28.98;;
11338;SDS011;5724;42.684;23.252;2024-03-02T11:10:35;39.42;;;29.60;;
11338;SDS011;5724;42.684;23.252;2024-03-02T11:13:08;40.47;;;30.42;;
11338;SDS011;5724;42.684;23.252;2024-03-02T11:15:34;37.05;;;28.95;;
11338;SDS011;5724;42.684;23.252;2024-03-02T11:18:03;42.03;;;30.70;;
11338;SDS011;5724;42.684;23.252;2024-03-02T11:20:34;43.78;;;32.20;;
11338;SDS011;5724;42.684;23.252;2024-03-02T11:23:04;38.08;;;30.70;;
11338;SDS011;5724;42.684;23.252;2024-03-02T11:25:31;45.28;;;31.38;;
11338;SDS011;5724;42.684;23.252;2024-03-02T11:28:00;40.17;;;30.63;;
11338;SDS011;5724;42.684;23.252;2024-03-02T11:33:02;44.45;;;33.20;;
11338;SDS011;5724;42.684;23.252;2024-03-02T11:35:36;43.95;;;33.15;;
11338;SDS011;5724;42.684;23.252;2024-03-02T11:38:02;42.63;;;34.28;;
11338;SDS011;5724;42.684;23.252;2024-03-02T11:40:28;49.50;;;38.78;;
11338;SDS011;5724;42.684;23.252;2024-03-02T11:42:54;47.97;;;37.38;;
11338;SDS011;5724;42.684;23.252;2024-03-02T11:45:23;50.17;;;38.15;;
11338;SDS011;5724;42.684;23.252;2024-03-02T11:47:50;44.03;;;35.13;;
11338;SDS011;5724;42.684;23.252;2024-03-02T11:50:28;46.95;;;33.42;;
11338;SDS011;5724;42.684;23.252;2024-03-02T11:53:02;42.72;;;32.00;;
11338;SDS011;5724;42.684;23.252;2024-03-02T11:55:36;42.10;;;31.77;;
11338;SDS011;5724;42.684;23.252;2024-03-02T11:58:05;36.88;;;29.00;;
11338;SDS011;5724;42.684;23.252;2024-03-02T12:00:34;38.60;;;28.15;;
11338;SDS011;5724;42.684;23.252;2024-03-02T12:05:26;32.35;;;25.52;;
11338;SDS011;5724;42.684;23.252;2024-03-02T12:07:57;29.45;;;24.42;;
11338;SDS011;5724;42.684;23.252;2024-03-02T12:10:23;34.80;;;27.52;;
11338;SDS011;5724;42.684;23.252;2024-03-02T12:12:59;36.95;;;27.80;;
11338;SDS011;5724;42.684;23.252;2024-03-02T12:15:29;39.95;;;29.92;;
11338;SDS011;5724;42.684;23.252;2024-03-02T12:17:56;36.25;;;29.38;;
11338;SDS011;5724;42.684;23.252;2024-03-02T12:20:23;37.22;;;28.20;;
11338;SDS011;5724;42.684;23.252;2024-03-02T12:22:50;38.13;;;29.25;;
11338;SDS011;5724;42.684;23.252;2024-03-02T12:25:19;37.58;;;29.00;;
11338;SDS011;5724;42.684;23.252;2024-03-02T12:27:46;46.90;;;38.17;;
11338;SDS011;5724;42.684;23.252;2024-03-02T12:30:14;38.00;;;32.00;;
11338;SDS011;5724;42.684;23.252;2024-03-02T12:32:41;44.72;;;36.80;;
11338;SDS011;5724;42.684;23.252;2024-03-02T12:35:07;44.42;;;37.95;;
11338;SDS011;5724;42.684;23.252;2024-03-02T12:37:33;41.22;;;33.90;;
11338;SDS011;5724;42.684;23.252;2024-03-02T12:39:58;38.90;;;29.65;;
11338;SDS011;5724;42.684;23.252;2024-03-02T12:42:24;35.83;;;26.48;;
11338;SDS011;5724;42.684;23.252;2024-03-02T12:44:53;30.20;;;25.33;;
11338;SDS011;5724;42.684;23.252;2024-03-02T12:47:20;29.60;;;25.25;;
11338;SDS011;5724;42.684;23.252;2024-03-02T12:49:45;29.00;;;23.48;;
11338;SDS011;5724;42.684;23.252;2024-03-02T12:52:14;29.77;;;23.98;;
11338;SDS011;5724;42.684;23.252;2024-03-02T12:54:39;27.13;;;22.25;;
11338;SDS011;5724;42.684;23.252;2024-03-02T12:57:05;29.90;;;23.17;;
11338;SDS011;5724;42.684;23.252;2024-03-02T12:59:30;29.90;;;22.55;;
11338;SDS011;5724;42.684;23.252;2024-03-02T13:01:56;30.38;;;24.20;;
11338;SDS011;5724;42.684;23.252;2024-03-02T13:04:26;30.25;;;24.52;;
11338;SDS011;5724;42.684;23.252;2024-03-02T13:06:53;29.45;;;25.25;;
11338;SDS011;5724;42.684;23.252;2024-03-02T13:09:21;30.80;;;25.33;;
11338;SDS011;5724;42.684;23.252;2024-03-02T13:11:47;32.85;;;26.13;;
11338;SDS011;5724;42.684;23.252;2024-03-02T13:14:13;31.60;;;25.35;;
11338;SDS011;5724;42.684;23.252;2024-03-02T13:16:42;32.75;;;26.50;;
11338;SDS011;5724;42.684;23.252;2024-03-02T13:19:08;30.42;;;23.52;;
11338;SDS011;5724;42.684;23.252;2024-03-02T13:21:37;34.85;;;29.27;;
11338;SDS011;5724;42.684;23.252;2024-03-02T13:24:03;31.90;;;27.30;;
11338;SDS011;5724;42.684;23.252;2024-03-02T13:26:29;33.53;;;28.77;;
11338;SDS011;5724;42.684;23.252;2024-03-02T13:28:55;38.92;;;30.73;;
11338;SDS011;5724;42.684;23.252;2024-03-02T13:31:21;40.13;;;31.58;;
11338;SDS011;5724;42.684;23.252;2024-03-02T13:33:47;36.78;;;30.90;;
11338;SDS011;5724;42.684;23.252;2024-03-02T13:36:13;39.40;;;30.90;;
11338;SDS011;5724;42.684;23.252;2024-03-02T13:38:38;35.53;;;30.42;;
11338;SDS011;5724;42.684;23.252;2024-03-02T13:41:04;34.63;;;28.55;;
11338;SDS011;5724;42.684;23.252;2024-03-02T13:43:30;33.10;;;28.45;;
11338;SDS011;5724;42.684;23.252;2024-03-02T13:46:00;35.83;;;31.05;;
11338;SDS011;5724;42.684;23.252;2024-03-02T13:48:25;41.47;;;33.60;;
11338;SDS011;5724;42.684;23.252;2024-03-02T13:50:52;38.47;;;32.53;;
11338;SDS011;5724;42.684;23.252;2024-03-02T13:53:18;40.80;;;30.70;;
11338;SDS011;5724;42.684;23.252;2024-03-02T13:55:44;33.53;;;28.33;;
11338;SDS011;5724;42.684;23.252;2024-03-02T13:58:10;36.63;;;28.95;;
11338;SDS011;5724;42.684;23.252;2024-03-02T14:00:36;35.28;;;28.50;;
11338;SDS011;5724;42.684;23.252;2024-03-02T14:03:06;33.45;;;29.10;;
11338;SDS011;5724;42.684;23.252;2024-03-02T14:05:32;33.40;;;28.15;;
11338;SDS011;5724;42.684;23.252;2024-03-02T14:07:58;32.13;;;26.75;;
11338;SDS011;5724;42.684;23.252;2024-03-02T14:10:25;32.47;;;26.52;;
11338;SDS011;5724;42.684;23.252;2024-03-02T14:12:52;34.95;;;29.05;;
11338;SDS011;5724;42.684;23.252;2024-03-02T14:15:17;34.80;;;29.92;;
11338;SDS011;5724;42.684;23.252;2024-03-02T14:17:43;35.08;;;29.85;;
11338;SDS011;5724;42.684;23.252;2024-03-02T14:20:08;35.17;;;29.45;;
11338;SDS011;5724;42.684;23.252;2024-03-02T14:22:38;34.75;;;28.40;;
11338;SDS011;5724;42.684;23.252;2024-03-02T14:25:04;37.58;;;29.65;;
11338;SDS011;5724;42.684;23.252;2024-03-02T14:27:30;29.52;;;25.98;;